createdAt,value
2023-02-11T00:00:19.653Z,40.35
2023-02-11T00:02:48.039Z,34.55
2023-02-11T00:05:15.600Z,34.47
2023-02-11T00:07:42.848Z,37.45
2023-02-11T00:10:10.315Z,34.70
2023-02-11T00:12:38.337Z,41.13
2023-02-11T00:15:06.677Z,38.17
2023-02-11T00:17:34.176Z,35.67
2023-02-11T00:20:01.389Z,37.95
2023-02-11T00:22:28.773Z,38.92
2023-02-11T00:24:57.226Z,39.20
2023-02-11T00:27:24.468Z,36.65
2023-02-11T00:29:51.773Z,37.15
2023-02-11T00:32:19.014Z,36.30
2023-02-11T00:34:46.263Z,39.45
2023-02-11T00:37:13.767Z,39.55
2023-02-11T00:39:41.023Z,34.85
2023-02-11T00:42:08.293Z,36.92
2023-02-11T00:44:35.536Z,32.40
2023-02-11T00:47:02.810Z,31.77
2023-02-11T00:49:30.114Z,36.20
2023-02-11T00:51:57.406Z,41.45
2023-02-11T00:54:24.717Z,37.45
2023-02-11T00:56:51.940Z,35.55
2023-02-11T00:59:19.208Z,44.90
2023-02-11T01:01:46.489Z,45.33
2023-02-11T01:04:13.800Z,38.83
2023-02-11T01:06:41.014Z,36.55
2023-02-11T01:09:08.255Z,39.80
2023-02-11T01:11:35.651Z,37.92
2023-02-11T01:14:03.278Z,35.92
2023-02-11T01:16:30.585Z,38.15
2023-02-11T01:18:58.979Z,37.38
2023-02-11T01:21:26.615Z,40.10
2023-02-11T01:23:53.856Z,40.33
2023-02-11T01:26:21.096Z,39.63
2023-02-11T01:28:48.359Z,35.53
2023-02-11T01:31:15.684Z,38.60
2023-02-11T01:33:43.206Z,37.67
2023-02-11T01:36:11.625Z,40.30
2023-02-11T01:38:40.940Z,42.00
2023-02-11T01:41:09.818Z,35.20
2023-02-11T01:43:38.583Z,38.85
2023-02-11T01:46:24.442Z,37.63
2023-02-11T01:48:54.111Z,40.35
2023-02-11T01:51:33.973Z,37.78
2023-02-11T01:54:20.364Z,47.95
2023-02-11T01:57:07.920Z,40.50
2023-02-11T02:00:04.581Z,39.13
2023-02-11T02:02:41.566Z,41.95
2023-02-11T02:05:25.283Z,36.35
2023-02-11T02:08:01.674Z,41.83
2023-02-11T02:10:29.810Z,40.88
2023-02-11T02:12:57.069Z,40.50
2023-02-11T02:15:26.340Z,40.10
2023-02-11T02:17:56.993Z,38.85
2023-02-11T02:20:39.577Z,41.25
2023-02-11T02:23:13.937Z,42.40
2023-02-11T02:25:41.169Z,41.30
2023-02-11T02:28:12.727Z,41.85
2023-02-11T02:30:46.248Z,37.45
2023-02-11T02:33:23.899Z,38.92
2023-02-11T02:35:57.875Z,40.67
2023-02-11T02:38:34.722Z,47.50
2023-02-11T02:41:08.957Z,44.08
2023-02-11T02:43:37.628Z,39.72
2023-02-11T02:46:11.921Z,41.05
2023-02-11T02:48:39.527Z,45.38
2023-02-11T02:51:25.640Z,43.85
2023-02-11T02:53:52.853Z,40.13
2023-02-11T02:56:23.112Z,42.33
2023-02-11T02:58:56.208Z,39.63
2023-02-11T03:01:34.045Z,41.92
2023-02-11T03:04:01.354Z,40.28
2023-02-11T03:06:35.087Z,43.92
2023-02-11T03:09:11.150Z,42.67
2023-02-11T03:11:39.074Z,42.80
2023-02-11T03:14:08.871Z,40.30
2023-02-11T03:16:39.417Z,45.85
2023-02-11T03:19:14.429Z,45.30
2023-02-11T03:21:42.969Z,41.70
2023-02-11T03:24:20.201Z,43.70
2023-02-11T03:26:50.415Z,45.15
2023-02-11T03:29:20.367Z,43.45
2023-02-11T03:31:55.414Z,48.58
2023-02-11T03:34:31.598Z,43.67
2023-02-11T03:37:02.665Z,47.05
2023-02-11T03:39:32.749Z,46.15
2023-02-11T03:42:00.953Z,48.33
2023-02-11T03:44:30.990Z,48.08
2023-02-11T03:46:58.420Z,45.05
2023-02-11T03:49:28.055Z,50.30
2023-02-11T03:51:55.705Z,48.92
2023-02-11T03:54:28.380Z,43.95
2023-02-11T03:56:56.664Z,47.85
2023-02-11T03:59:23.952Z,46.53
2023-02-11T04:01:51.197Z,46.28
2023-02-11T04:04:18.425Z,47.15
2023-02-11T04:06:45.819Z,47.97
2023-02-11T04:09:13.344Z,54.97
2023-02-11T04:11:40.607Z,47.78
2023-02-11T04:14:07.839Z,50.80
2023-02-11T04:16:35.174Z,42.22
2023-02-11T04:19:02.443Z,45.83
2023-02-11T04:21:29.778Z,53.00
2023-02-11T04:23:57.011Z,43.88
2023-02-11T04:26:24.277Z,45.53
2023-02-11T04:28:51.536Z,43.78
2023-02-11T04:31:18.806Z,48.75
2023-02-11T04:33:46.283Z,43.25
2023-02-11T04:36:13.601Z,44.25
2023-02-11T04:38:40.909Z,53.92
2023-02-11T04:41:08.214Z,47.38
2023-02-11T04:43:35.539Z,45.13
2023-02-11T04:46:02.842Z,47.25
2023-02-11T04:48:30.189Z,46.13
2023-02-11T04:50:57.402Z,51.00
2023-02-11T04:53:24.642Z,51.13
2023-02-11T04:55:52.348Z,45.85
2023-02-11T04:58:20.394Z,46.33
2023-02-11T05:00:47.769Z,42.42
2023-02-11T05:03:15.064Z,48.30
2023-02-11T05:05:43.113Z,49.83
2023-02-11T05:08:10.801Z,48.55
2023-02-11T05:10:38.383Z,52.08
2023-02-11T05:13:05.703Z,45.70
2023-02-11T05:15:32.930Z,43.35
2023-02-11T05:18:00.207Z,48.97
2023-02-11T05:20:27.411Z,47.17
2023-02-11T05:22:54.723Z,55.08
2023-02-11T05:25:22.057Z,48.17
2023-02-11T05:27:49.361Z,46.17
2023-02-11T05:30:16.971Z,46.33
2023-02-11T05:32:44.210Z,47.83
2023-02-11T05:35:11.489Z,44.25
2023-02-11T05:37:38.873Z,44.83
2023-02-11T05:40:06.487Z,50.85
2023-02-11T05:42:33.763Z,45.85
2023-02-11T05:45:01.024Z,49.13
2023-02-11T05:47:28.274Z,48.55
2023-02-11T05:49:55.562Z,44.55
2023-02-11T05:52:23.264Z,56.00
2023-02-11T05:54:50.850Z,48.83
2023-02-11T05:57:18.322Z,52.60
2023-02-11T05:59:45.561Z,45.38
2023-02-11T06:02:12.983Z,47.85
2023-02-11T06:04:40.314Z,47.00
2023-02-11T06:07:07.578Z,48.03
2023-02-11T06:09:34.879Z,53.92
2023-02-11T06:12:02.092Z,48.20
2023-02-11T06:14:29.313Z,51.53
2023-02-11T06:16:56.559Z,51.97
2023-02-11T06:19:23.769Z,52.47
2023-02-11T06:21:51.001Z,54.67
2023-02-11T06:24:38.277Z,52.88
2023-02-11T06:27:05.776Z,49.60
2023-02-11T06:29:32.978Z,54.60
2023-02-11T06:32:00.407Z,50.88
2023-02-11T06:34:28.173Z,52.35
2023-02-11T06:36:55.452Z,55.22
2023-02-11T06:39:22.694Z,52.30
2023-02-11T06:41:49.953Z,53.45
2023-02-11T06:44:17.304Z,53.95
2023-02-11T06:46:44.645Z,53.72
2023-02-11T06:49:11.925Z,50.83
2023-02-11T06:51:39.169Z,53.08
2023-02-11T06:54:07.299Z,56.42
2023-02-11T06:56:34.993Z,49.58
2023-02-11T06:59:02.579Z,53.70
2023-02-11T07:01:29.893Z,53.53
2023-02-11T07:03:57.419Z,53.80
2023-02-11T07:06:28.075Z,50.72
2023-02-11T07:08:56.079Z,53.85
2023-02-11T07:11:24.795Z,55.85
2023-02-11T07:13:52.996Z,52.28
2023-02-11T07:16:20.660Z,55.45
2023-02-11T07:18:48.365Z,53.28
2023-02-11T07:21:16.696Z,51.90
2023-02-11T07:23:44.023Z,52.88
2023-02-11T07:26:12.436Z,55.30
2023-02-11T07:28:40.488Z,51.35
2023-02-11T07:31:18.252Z,52.88
2023-02-11T07:33:48.877Z,57.78
2023-02-11T07:36:17.202Z,58.90
2023-02-11T07:38:44.601Z,57.08
2023-02-11T07:41:12.779Z,53.50
2023-02-11T07:43:40.607Z,54.92
2023-02-11T07:46:09.794Z,55.15
2023-02-11T07:48:37.074Z,51.25
2023-02-11T07:51:07.306Z,60.33
2023-02-11T07:53:34.589Z,55.10
2023-02-11T07:56:01.865Z,52.75
2023-02-11T07:58:29.062Z,60.03
2023-02-11T08:00:56.382Z,55.92
2023-02-11T08:03:23.727Z,55.15
2023-02-11T08:05:51.214Z,53.08
2023-02-11T08:08:18.562Z,51.88
2023-02-11T08:10:45.789Z,55.95
2023-02-11T08:13:13.082Z,51.92
2023-02-11T08:15:40.350Z,50.83
2023-02-11T08:18:08.741Z,53.88
2023-02-11T08:20:36.055Z,51.33
2023-02-11T08:23:03.296Z,53.63
2023-02-11T08:25:30.530Z,53.50
2023-02-11T08:27:57.778Z,51.25
2023-02-11T08:30:27.230Z,55.17
2023-02-11T08:32:54.772Z,60.22
2023-02-11T08:35:22.092Z,58.40
2023-02-11T08:37:49.297Z,56.42
2023-02-11T08:40:16.617Z,54.22
2023-02-11T08:42:43.832Z,51.60
2023-02-11T08:45:12.461Z,57.63
2023-02-11T08:47:40.009Z,52.85
2023-02-11T08:50:07.491Z,57.47
2023-02-11T08:52:34.727Z,61.30
2023-02-11T08:55:02.013Z,59.95
2023-02-11T08:57:29.258Z,50.17
2023-02-11T08:59:56.501Z,52.35
2023-02-11T09:02:23.801Z,52.58
2023-02-11T09:04:51.000Z,56.33
2023-02-11T09:07:18.327Z,55.05
2023-02-11T09:09:45.552Z,50.30
2023-02-11T09:12:12.802Z,56.63
2023-02-11T09:14:41.400Z,50.15
2023-02-11T09:17:08.674Z,53.47
2023-02-11T09:19:36.260Z,49.58
2023-02-11T09:22:03.643Z,51.38
2023-02-11T09:24:30.882Z,54.30
2023-02-11T09:26:58.191Z,54.83
2023-02-11T09:29:25.514Z,48.70
2023-02-11T09:31:52.934Z,53.70
2023-02-11T09:34:20.246Z,56.80
2023-02-11T09:36:47.526Z,54.72
2023-02-11T09:39:19.681Z,55.67
2023-02-11T09:41:56.121Z,54.35
2023-02-11T09:44:24.755Z,53.22
2023-02-11T09:47:00.247Z,57.35
2023-02-11T09:49:56.663Z,53.25
2023-02-11T09:52:23.884Z,54.30
2023-02-11T09:54:55.672Z,52.53
2023-02-11T09:57:28.813Z,54.75
2023-02-11T09:59:57.805Z,56.70
2023-02-11T10:02:38.111Z,58.67
2023-02-11T10:05:14.539Z,55.40
2023-02-11T10:07:47.320Z,55.38
2023-02-11T10:13:26.228Z,57.20
2023-02-11T10:16:08.934Z,54.45
2023-02-11T10:18:51.576Z,50.50
2023-02-11T10:21:30.615Z,54.53
2023-02-11T10:24:00.885Z,58.25
2023-02-11T10:26:30.994Z,57.17
2023-02-11T10:29:01.491Z,56.78
2023-02-11T10:31:34.958Z,48.90
2023-02-11T10:34:07.670Z,53.20
2023-02-11T10:36:36.720Z,50.22
2023-02-11T10:39:13.051Z,55.60
2023-02-11T10:41:45.173Z,51.53
2023-02-11T10:44:22.728Z,53.50
2023-02-11T10:46:50.660Z,52.28
2023-02-11T10:49:37.682Z,51.47
2023-02-11T10:52:13.937Z,51.58
2023-02-11T10:54:41.181Z,52.80
2023-02-11T10:57:17.200Z,54.33
2023-02-11T10:59:44.442Z,53.45
2023-02-11T11:02:34.580Z,48.03
2023-02-11T11:05:22.674Z,46.35
2023-02-11T11:07:57.773Z,51.90
2023-02-11T11:10:29.784Z,51.67
2023-02-11T11:12:57.286Z,49.58
2023-02-11T11:15:28.441Z,55.05
2023-02-11T11:18:21.258Z,54.25
2023-02-11T11:20:57.423Z,50.20
2023-02-11T11:23:25.449Z,57.30
2023-02-11T11:26:01.994Z,55.65
2023-02-11T11:28:30.320Z,48.85
2023-02-11T11:30:58.825Z,49.30
2023-02-11T11:33:30.668Z,51.58
2023-02-11T11:36:11.172Z,55.10
2023-02-11T11:38:43.693Z,57.47
2023-02-11T11:41:20.177Z,48.97
2023-02-11T11:43:57.808Z,52.90
2023-02-11T11:46:29.800Z,58.80
2023-02-11T11:48:59.630Z,54.92
2023-02-11T11:51:26.934Z,64.30
2023-02-11T11:53:58.303Z,55.72
2023-02-11T11:56:27.021Z,51.13
2023-02-11T11:58:54.725Z,54.40
2023-02-11T12:01:32.202Z,49.00
2023-02-11T12:04:05.695Z,58.50
2023-02-11T12:06:51.473Z,56.72
2023-02-11T12:11:57.021Z,54.85
2023-02-11T12:14:24.262Z,49.97
2023-02-11T12:16:51.533Z,51.47
2023-02-11T12:19:24.979Z,57.67
2023-02-11T12:22:11.496Z,54.15
2023-02-11T12:24:38.689Z,54.83
2023-02-11T12:27:18.248Z,51.13
2023-02-11T12:29:45.506Z,56.53
2023-02-11T12:32:24.546Z,56.65
2023-02-11T12:34:51.773Z,52.60
2023-02-11T12:37:51.648Z,52.50
2023-02-11T12:40:31.959Z,56.42
2023-02-11T12:43:17.428Z,55.65
2023-02-11T12:45:59.467Z,52.45
2023-02-11T12:48:35.823Z,52.83
2023-02-11T12:51:03.177Z,49.17
2023-02-11T12:53:33.370Z,51.63
2023-02-11T12:56:11.775Z,49.78
2023-02-11T12:58:45.556Z,49.90
2023-02-11T13:01:33.445Z,52.92
2023-02-11T13:04:08.580Z,55.20
2023-02-11T13:06:45.616Z,54.83
2023-02-11T13:09:19.018Z,49.38
2023-02-11T13:11:52.102Z,54.17
2023-02-11T13:14:25.201Z,53.70
2023-02-11T13:16:53.464Z,52.78
2023-02-11T13:19:29.763Z,56.65
2023-02-11T13:22:03.826Z,58.05
2023-02-11T13:24:57.475Z,52.75
2023-02-11T13:27:38.270Z,52.05
2023-02-11T13:30:14.876Z,55.17
2023-02-11T13:33:02.032Z,48.63
2023-02-11T13:35:30.906Z,54.88
2023-02-11T13:37:59.748Z,49.13
2023-02-11T13:40:28.892Z,57.22
2023-02-11T13:42:58.340Z,51.78
2023-02-11T13:45:43.818Z,52.58
2023-02-11T13:48:24.165Z,46.28
2023-02-11T13:50:52.893Z,50.78
2023-02-11T13:53:21.168Z,49.42
2023-02-11T13:55:50.592Z,49.35
2023-02-11T13:58:37.267Z,45.80
2023-02-11T14:01:04.679Z,54.13
2023-02-11T14:03:55.752Z,47.13
2023-02-11T14:06:43.473Z,45.80
2023-02-11T14:09:11.489Z,52.45
2023-02-11T14:11:44.713Z,49.03
2023-02-11T14:14:18.301Z,44.20
2023-02-11T14:16:57.867Z,51.95
2023-02-11T14:19:35.154Z,52.75
2023-02-11T14:22:06.840Z,45.53
2023-02-11T14:24:34.930Z,47.28
2023-02-11T14:27:34.720Z,48.33
2023-02-11T14:30:07.881Z,46.55
2023-02-11T14:32:53.852Z,45.65
2023-02-11T14:35:21.104Z,47.10
2023-02-11T14:37:50.675Z,48.58
2023-02-11T14:40:22.472Z,45.78
2023-02-11T14:42:51.353Z,43.50
2023-02-11T14:45:26.677Z,46.50
2023-02-11T14:47:53.922Z,43.03
2023-02-11T14:50:26.502Z,41.83
2023-02-11T14:52:54.160Z,45.47
2023-02-11T14:55:21.371Z,40.42
2023-02-11T14:57:50.957Z,40.15
2023-02-11T15:00:22.410Z,41.95
2023-02-11T15:02:49.878Z,39.38
2023-02-11T15:05:27.820Z,36.30
2023-02-11T15:08:00.138Z,40.13
2023-02-11T15:10:36.008Z,37.95
2023-02-11T15:13:04.332Z,41.20
2023-02-11T15:15:32.956Z,40.25
2023-02-11T15:18:02.475Z,38.03
2023-02-11T15:20:32.040Z,42.53
2023-02-11T15:23:03.697Z,37.33
2023-02-11T15:25:33.808Z,38.47
2023-02-11T15:28:01.693Z,43.53
2023-02-11T15:30:34.302Z,42.55
2023-02-11T15:33:06.896Z,39.70
2023-02-11T15:35:38.833Z,42.03
2023-02-11T15:38:06.395Z,40.17
2023-02-11T15:40:37.520Z,42.13
2023-02-11T15:43:09.142Z,45.38
2023-02-11T15:45:41.055Z,45.30
2023-02-11T15:48:14.414Z,47.63
2023-02-11T15:50:42.894Z,52.33
2023-02-11T15:53:25.558Z,49.22
2023-02-11T15:55:54.791Z,46.90
2023-02-11T15:58:22.724Z,46.85
2023-02-11T16:00:56.728Z,47.88
2023-02-11T16:03:25.143Z,51.58
2023-02-11T16:05:52.612Z,44.17
2023-02-11T16:08:24.501Z,52.35
2023-02-11T16:10:58.668Z,46.75
2023-02-11T16:13:28.348Z,44.97
2023-02-11T16:15:55.806Z,46.55
2023-02-11T16:18:31.062Z,43.92
2023-02-11T16:21:04.841Z,47.40
2023-02-11T16:23:44.903Z,49.00
2023-02-11T16:26:23.130Z,43.67
2023-02-11T16:28:50.580Z,44.42
2023-02-11T16:31:18.165Z,44.15
2023-02-11T16:33:45.472Z,47.33
2023-02-11T16:36:13.758Z,42.63
2023-02-11T16:38:41.385Z,52.25
2023-02-11T16:41:11.878Z,55.53
2023-02-11T16:43:40.185Z,72.05
2023-02-11T16:46:08.877Z,58.97
2023-02-11T16:48:36.194Z,51.20
2023-02-11T16:51:03.728Z,54.35
2023-02-11T16:53:31.593Z,51.88
2023-02-11T16:55:58.847Z,51.15
2023-02-11T16:58:26.218Z,51.50
2023-02-11T17:00:53.819Z,74.55
2023-02-11T17:03:23.910Z,78.70
2023-02-11T17:05:55.699Z,55.80
2023-02-11T17:08:23.367Z,50.78
2023-02-11T17:10:50.907Z,51.00
2023-02-11T17:13:18.300Z,52.45
2023-02-11T17:15:45.562Z,53.00
2023-02-11T17:18:14.426Z,51.50
2023-02-11T17:20:42.256Z,51.15
2023-02-11T17:23:09.791Z,51.22
2023-02-11T17:25:37.518Z,55.00
2023-02-11T17:28:09.379Z,47.35
2023-02-11T17:30:36.682Z,51.35
2023-02-11T17:33:03.947Z,47.17
2023-02-11T17:35:31.347Z,46.47
2023-02-11T17:37:59.279Z,49.67
2023-02-11T17:40:26.673Z,54.03
2023-02-11T17:42:53.890Z,48.95
2023-02-11T17:45:22.406Z,52.10
2023-02-11T17:47:50.035Z,49.63
2023-02-11T17:50:17.367Z,50.33
2023-02-11T17:52:44.794Z,52.08
2023-02-11T17:55:12.073Z,66.38
2023-02-11T17:57:39.565Z,50.45
2023-02-11T18:00:07.866Z,56.33
2023-02-11T18:02:35.177Z,100.55
2023-02-11T18:05:02.515Z,68.30
2023-02-11T18:07:30.382Z,70.82
2023-02-11T18:09:57.719Z,55.65
2023-02-11T18:12:27.770Z,55.40
2023-02-11T18:14:57.897Z,56.22
2023-02-11T18:17:25.883Z,73.07
2023-02-11T18:19:56.119Z,58.55
2023-02-11T18:22:23.786Z,68.93
2023-02-11T18:24:54.741Z,72.03
2023-02-11T18:27:22.925Z,61.55
2023-02-11T18:29:50.331Z,99.68
2023-02-11T18:32:17.617Z,61.40
2023-02-11T18:34:44.870Z,53.28
2023-02-11T18:37:13.483Z,57.28
2023-02-11T18:39:41.094Z,58.10
2023-02-11T18:42:08.422Z,115.45
2023-02-11T18:44:35.801Z,66.35
2023-02-11T18:47:03.278Z,54.67
2023-02-11T18:49:30.602Z,58.95
2023-02-11T18:52:00.596Z,52.92
2023-02-11T18:54:27.911Z,54.83
2023-02-11T18:56:55.253Z,56.35
2023-02-11T18:59:22.463Z,64.05
2023-02-11T19:01:49.759Z,89.28
2023-02-11T19:04:20.137Z,53.90
2023-02-11T19:06:49.584Z,54.72
2023-02-11T19:09:18.352Z,54.45
2023-02-11T19:11:52.353Z,58.58
2023-02-11T19:14:21.307Z,57.08
2023-02-11T19:16:50.705Z,59.53
2023-02-11T19:19:18.718Z,56.05
2023-02-11T19:21:47.468Z,53.33
2023-02-11T19:24:16.221Z,52.33
2023-02-11T19:26:43.713Z,50.20
2023-02-11T19:29:11.350Z,50.63
2023-02-11T19:31:39.118Z,48.17
2023-02-11T19:34:07.604Z,58.85
2023-02-11T19:36:35.231Z,60.85
2023-02-11T19:39:03.019Z,55.22
2023-02-11T19:41:30.502Z,53.72
2023-02-11T19:43:57.894Z,50.30
2023-02-11T19:46:25.940Z,46.60
2023-02-11T19:48:53.261Z,51.47
2023-02-11T19:51:21.295Z,53.03
2023-02-11T19:53:49.138Z,50.65
2023-02-11T19:56:18.667Z,47.75
2023-02-11T19:58:47.702Z,48.22
2023-02-11T20:01:16.243Z,46.22
2023-02-11T20:03:43.547Z,43.00
2023-02-11T20:06:17.701Z,40.80
2023-02-11T20:08:45.029Z,41.00
2023-02-11T20:11:16.607Z,38.90
2023-02-11T20:13:44.281Z,47.08
2023-02-11T20:16:13.228Z,49.17
2023-02-11T20:18:41.019Z,40.88
2023-02-11T20:21:08.945Z,41.13
2023-02-11T20:23:36.369Z,42.72
2023-02-11T20:26:14.583Z,42.25
2023-02-11T20:28:42.200Z,40.78
2023-02-11T20:31:11.168Z,47.65
2023-02-11T20:33:38.902Z,40.20
2023-02-11T20:36:06.352Z,45.45
2023-02-11T20:38:34.020Z,43.63
2023-02-11T20:41:10.492Z,44.83
2023-02-11T20:43:48.047Z,42.67
2023-02-11T20:46:17.075Z,46.70
2023-02-11T20:48:44.690Z,45.25
2023-02-11T20:51:16.568Z,45.58
2023-02-11T20:53:44.646Z,45.40
2023-02-11T20:56:12.797Z,43.38
2023-02-11T20:58:40.485Z,44.33
2023-02-11T21:01:08.770Z,41.65
2023-02-11T21:03:36.123Z,42.00
2023-02-11T21:06:03.541Z,39.80
2023-02-11T21:08:30.827Z,39.78
2023-02-11T21:10:58.158Z,36.83
2023-02-11T21:13:27.388Z,37.70
2023-02-11T21:15:57.966Z,41.25
2023-02-11T21:18:25.605Z,42.65
2023-02-11T21:20:54.972Z,37.47
2023-02-11T21:23:22.271Z,37.50
2023-02-11T21:25:49.586Z,34.03
2023-02-11T21:28:16.920Z,34.03
2023-02-11T21:30:44.332Z,37.72
2023-02-11T21:33:11.621Z,41.42
2023-02-11T21:35:38.997Z,34.40
2023-02-11T21:38:06.380Z,37.42
2023-02-11T21:40:33.624Z,33.80
2023-02-11T21:43:00.852Z,34.20
2023-02-11T21:45:28.318Z,35.35
2023-02-11T21:47:55.729Z,37.50
2023-02-11T21:50:23.124Z,34.72
2023-02-11T21:52:50.617Z,33.03
2023-02-11T21:55:17.880Z,35.63
2023-02-11T21:57:45.186Z,37.00
2023-02-11T22:00:12.910Z,34.88
2023-02-11T22:02:40.294Z,36.38
2023-02-11T22:05:07.615Z,31.77
2023-02-11T22:07:36.517Z,35.75
2023-02-11T22:10:04.530Z,33.05
2023-02-11T22:12:31.786Z,33.45
2023-02-11T22:14:59.029Z,32.90
2023-02-11T22:17:26.333Z,32.20
2023-02-11T22:19:53.622Z,31.92
2023-02-11T22:22:21.339Z,35.45
2023-02-11T22:24:49.464Z,34.92
2023-02-11T22:27:20.130Z,33.38
2023-02-11T22:29:47.648Z,38.08
2023-02-11T22:32:14.987Z,35.20
2023-02-11T22:34:42.260Z,33.38
2023-02-11T22:37:09.598Z,33.88
2023-02-11T22:39:36.878Z,38.38
2023-02-11T22:42:04.265Z,40.58
2023-02-11T22:44:31.576Z,35.88
2023-02-11T22:46:58.820Z,36.88
2023-02-11T22:49:26.356Z,36.83
2023-02-11T22:51:53.698Z,37.30
2023-02-11T22:54:21.017Z,35.95
2023-02-11T22:56:50.713Z,44.47
2023-02-11T22:59:18.370Z,38.33
2023-02-11T23:01:47.254Z,37.78
2023-02-11T23:04:16.007Z,43.00
2023-02-11T23:06:43.505Z,42.45
2023-02-11T23:09:14.476Z,44.90
2023-02-11T23:11:41.894Z,45.22
2023-02-11T23:14:12.129Z,40.17
2023-02-11T23:16:39.896Z,44.92
2023-02-11T23:19:09.719Z,42.08
2023-02-11T23:21:38.301Z,40.38
2023-02-11T23:24:11.051Z,36.45
2023-02-11T23:26:39.472Z,38.85
2023-02-11T23:29:07.049Z,38.00
2023-02-11T23:31:37.597Z,36.25
2023-02-11T23:34:05.257Z,39.58
2023-02-11T23:36:32.540Z,37.83
2023-02-11T23:38:59.815Z,38.08
2023-02-11T23:41:27.128Z,34.53
2023-02-11T23:43:55.523Z,35.55
2023-02-11T23:46:23.658Z,36.38
2023-02-11T23:48:51.499Z,36.85
2023-02-11T23:51:19.039Z,40.88
2023-02-11T23:53:46.500Z,37.53
2023-02-11T23:56:24.161Z,32.50
2023-02-11T23:58:52.632Z,32.60
